sensor_id;sensor_type;location;lat;lon;timestamp;P1;durP1;ratioP1;P2;durP2;ratioP2
70547;SDS011;58099;43.406;3.698;2022-08-03T00:01:33;5.50;;;2.77;;
70547;SDS011;58099;43.406;3.698;2022-08-03T00:04:04;7.82;;;2.90;;
70547;SDS011;58099;43.406;3.698;2022-08-03T00:06:31;7.97;;;3.30;;
70547;SDS011;58099;43.406;3.698;2022-08-03T00:08:56;6.47;;;2.53;;
70547;SDS011;58099;43.406;3.698;2022-08-03T00:11:22;7.33;;;3.00;;
70547;SDS011;58099;43.406;3.698;2022-08-03T00:13:48;5.78;;;3.17;;
70547;SDS011;58099;43.406;3.698;2022-08-03T00:16:14;5.63;;;2.95;;
70547;SDS011;58099;43.406;3.698;2022-08-03T00:18:40;4.80;;;2.78;;
70547;SDS011;58099;43.406;3.698;2022-08-03T00:21:06;5.60;;;2.50;;
70547;SDS011;58099;43.406;3.698;2022-08-03T00:23:32;5.35;;;2.70;;
70547;SDS011;58099;43.406;3.698;2022-08-03T00:25:58;5.47;;;2.47;;
70547;SDS011;58099;43.406;3.698;2022-08-03T00:28:24;5.57;;;3.07;;
70547;SDS011;58099;43.406;3.698;2022-08-03T00:30:50;5.43;;;3.22;;
70547;SDS011;58099;43.406;3.698;2022-08-03T00:33:16;5.80;;;3.00;;
70547;SDS011;58099;43.406;3.698;2022-08-03T00:35:42;5.83;;;2.70;;
70547;SDS011;58099;43.406;3.698;2022-08-03T00:38:07;5.57;;;3.17;;
70547;SDS011;58099;43.406;3.698;2022-08-03T00:40:33;5.13;;;2.67;;
70547;SDS011;58099;43.406;3.698;2022-08-03T00:43:03;6.03;;;3.45;;
70547;SDS011;58099;43.406;3.698;2022-08-03T00:45:34;7.30;;;2.60;;
70547;SDS011;58099;43.406;3.698;2022-08-03T00:48:02;6.05;;;2.55;;
70547;SDS011;58099;43.406;3.698;2022-08-03T00:50:29;6.13;;;2.73;;
70547;SDS011;58099;43.406;3.698;2022-08-03T00:52:59;6.63;;;3.22;;
70547;SDS011;58099;43.406;3.698;2022-08-03T00:55:25;6.15;;;2.72;;
70547;SDS011;58099;43.406;3.698;2022-08-03T00:57:52;4.72;;;2.60;;
70547;SDS011;58099;43.406;3.698;2022-08-03T01:00:22;5.50;;;2.92;;
70547;SDS011;58099;43.406;3.698;2022-08-03T01:02:49;6.43;;;2.77;;
70547;SDS011;58099;43.406;3.698;2022-08-03T01:05:16;4.50;;;2.60;;
70547;SDS011;58099;43.406;3.698;2022-08-03T01:10:38;5.50;;;2.53;;
70547;SDS011;58099;43.406;3.698;2022-08-03T01:16:16;4.70;;;2.20;;
70547;SDS011;58099;43.406;3.698;2022-08-03T01:21:24;6.00;;;2.78;;
70547;SDS011;58099;43.406;3.698;2022-08-03T01:26:54;5.57;;;2.53;;
70547;SDS011;58099;43.406;3.698;2022-08-03T01:35:25;4.57;;;2.42;;
70547;SDS011;58099;43.406;3.698;2022-08-03T01:37:55;5.47;;;2.42;;
70547;SDS011;58099;43.406;3.698;2022-08-03T01:40:25;5.95;;;2.75;;
70547;SDS011;58099;43.406;3.698;2022-08-03T01:42:53;4.27;;;2.40;;
70547;SDS011;58099;43.406;3.698;2022-08-03T01:45:21;5.00;;;2.35;;
70547;SDS011;58099;43.406;3.698;2022-08-03T01:47:48;5.60;;;2.65;;
70547;SDS011;58099;43.406;3.698;2022-08-03T01:50:17;4.63;;;2.47;;
70547;SDS011;58099;43.406;3.698;2022-08-03T01:52:46;5.60;;;2.10;;
70547;SDS011;58099;43.406;3.698;2022-08-03T01:55:13;5.70;;;2.30;;
70547;SDS011;58099;43.406;3.698;2022-08-03T01:57:42;6.43;;;2.42;;
70547;SDS011;58099;43.406;3.698;2022-08-03T02:00:10;4.85;;;2.70;;
70547;SDS011;58099;43.406;3.698;2022-08-03T02:02:37;4.40;;;1.95;;
70547;SDS011;58099;43.406;3.698;2022-08-03T02:05:05;5.63;;;2.47;;
70547;SDS011;58099;43.406;3.698;2022-08-03T02:07:33;5.00;;;2.30;;
70547;SDS011;58099;43.406;3.698;2022-08-03T02:10:00;6.25;;;2.65;;
70547;SDS011;58099;43.406;3.698;2022-08-03T02:12:29;6.57;;;2.72;;
70547;SDS011;58099;43.406;3.698;2022-08-03T02:14:57;4.38;;;2.30;;
70547;SDS011;58099;43.406;3.698;2022-08-03T02:17:24;4.80;;;2.53;;
70547;SDS011;58099;43.406;3.698;2022-08-03T02:19:51;5.27;;;2.60;;
70547;SDS011;58099;43.406;3.698;2022-08-03T02:22:20;5.53;;;2.97;;
70547;SDS011;58099;43.406;3.698;2022-08-03T02:24:48;4.88;;;3.00;;
70547;SDS011;58099;43.406;3.698;2022-08-03T02:27:18;6.10;;;2.95;;
70547;SDS011;58099;43.406;3.698;2022-08-03T02:29:47;6.45;;;3.20;;
70547;SDS011;58099;43.406;3.698;2022-08-03T02:32:18;4.53;;;2.40;;
70547;SDS011;58099;43.406;3.698;2022-08-03T02:34:49;5.85;;;2.80;;
70547;SDS011;58099;43.406;3.698;2022-08-03T02:37:18;5.68;;;2.90;;
70547;SDS011;58099;43.406;3.698;2022-08-03T02:39:45;4.97;;;2.22;;
70547;SDS011;58099;43.406;3.698;2022-08-03T02:42:13;4.63;;;2.55;;
70547;SDS011;58099;43.406;3.698;2022-08-03T02:44:40;5.10;;;2.57;;
70547;SDS011;58099;43.406;3.698;2022-08-03T02:47:11;6.03;;;2.85;;
70547;SDS011;58099;43.406;3.698;2022-08-03T02:49:40;7.03;;;2.85;;
70547;SDS011;58099;43.406;3.698;2022-08-03T02:52:10;4.93;;;2.88;;
70547;SDS011;58099;43.406;3.698;2022-08-03T02:54:37;5.20;;;2.70;;
70547;SDS011;58099;43.406;3.698;2022-08-03T02:57:05;4.97;;;2.63;;
70547;SDS011;58099;43.406;3.698;2022-08-03T02:59:33;5.18;;;2.47;;
70547;SDS011;58099;43.406;3.698;2022-08-03T03:02:01;5.57;;;2.50;;
70547;SDS011;58099;43.406;3.698;2022-08-03T03:04:27;7.35;;;2.60;;
70547;SDS011;58099;43.406;3.698;2022-08-03T03:06:55;5.05;;;2.67;;
70547;SDS011;58099;43.406;3.698;2022-08-03T03:09:22;5.03;;;2.43;;
70547;SDS011;58099;43.406;3.698;2022-08-03T03:11:48;5.97;;;2.22;;
70547;SDS011;58099;43.406;3.698;2022-08-03T03:14:16;4.47;;;2.58;;
70547;SDS011;58099;43.406;3.698;2022-08-03T03:16:43;5.57;;;2.42;;
70547;SDS011;58099;43.406;3.698;2022-08-03T03:19:11;5.97;;;2.80;;
70547;SDS011;58099;43.406;3.698;2022-08-03T03:21:39;5.77;;;2.10;;
70547;SDS011;58099;43.406;3.698;2022-08-03T03:24:07;6.25;;;2.40;;
70547;SDS011;58099;43.406;3.698;2022-08-03T03:26:34;5.72;;;2.20;;
70547;SDS011;58099;43.406;3.698;2022-08-03T03:29:00;5.75;;;2.50;;
70547;SDS011;58099;43.406;3.698;2022-08-03T03:31:27;4.63;;;2.17;;
70547;SDS011;58099;43.406;3.698;2022-08-03T03:33:53;5.78;;;2.88;;
70547;SDS011;58099;43.406;3.698;2022-08-03T03:36:23;7.05;;;2.40;;
70547;SDS011;58099;43.406;3.698;2022-08-03T03:38:49;5.53;;;2.30;;
70547;SDS011;58099;43.406;3.698;2022-08-03T03:41:15;6.88;;;2.20;;
70547;SDS011;58099;43.406;3.698;2022-08-03T03:43:41;4.80;;;2.80;;
70547;SDS011;58099;43.406;3.698;2022-08-03T03:46:07;4.77;;;2.17;;
70547;SDS011;58099;43.406;3.698;2022-08-03T03:48:35;6.30;;;2.30;;
70547;SDS011;58099;43.406;3.698;2022-08-03T03:51:02;4.38;;;2.10;;
70547;SDS011;58099;43.406;3.698;2022-08-03T03:53:28;6.60;;;2.70;;
70547;SDS011;58099;43.406;3.698;2022-08-03T03:55:54;5.10;;;2.33;;
70547;SDS011;58099;43.406;3.698;2022-08-03T03:58:20;5.28;;;2.70;;
70547;SDS011;58099;43.406;3.698;2022-08-03T04:00:45;6.40;;;2.40;;
70547;SDS011;58099;43.406;3.698;2022-08-03T04:03:11;4.95;;;2.50;;
70547;SDS011;58099;43.406;3.698;2022-08-03T04:05:37;4.80;;;2.30;;
70547;SDS011;58099;43.406;3.698;2022-08-03T04:08:21;6.60;;;2.60;;
70547;SDS011;58099;43.406;3.698;2022-08-03T04:14:13;6.93;;;2.85;;
70547;SDS011;58099;43.406;3.698;2022-08-03T04:16:51;5.22;;;2.50;;
70547;SDS011;58099;43.406;3.698;2022-08-03T04:19:29;6.72;;;2.40;;
70547;SDS011;58099;43.406;3.698;2022-08-03T04:22:08;10.32;;;3.67;;
70547;SDS011;58099;43.406;3.698;2022-08-03T04:24:43;7.53;;;2.78;;
70547;SDS011;58099;43.406;3.698;2022-08-03T04:27:19;5.38;;;2.33;;
70547;SDS011;58099;43.406;3.698;2022-08-03T04:29:48;5.70;;;2.70;;
70547;SDS011;58099;43.406;3.698;2022-08-03T04:32:16;5.68;;;3.08;;
70547;SDS011;58099;43.406;3.698;2022-08-03T04:34:44;8.45;;;2.42;;
70547;SDS011;58099;43.406;3.698;2022-08-03T04:37:11;6.32;;;2.60;;
70547;SDS011;58099;43.406;3.698;2022-08-03T04:39:42;8.43;;;2.83;;
70547;SDS011;58099;43.406;3.698;2022-08-03T04:42:10;6.93;;;2.90;;
70547;SDS011;58099;43.406;3.698;2022-08-03T04:44:39;5.70;;;2.47;;
70547;SDS011;58099;43.406;3.698;2022-08-03T04:47:08;6.78;;;2.83;;
70547;SDS011;58099;43.406;3.698;2022-08-03T04:49:34;5.95;;;2.70;;
70547;SDS011;58099;43.406;3.698;2022-08-03T04:52:02;5.47;;;2.50;;
70547;SDS011;58099;43.406;3.698;2022-08-03T04:54:28;5.68;;;2.30;;
70547;SDS011;58099;43.406;3.698;2022-08-03T04:56:54;6.60;;;2.70;;
70547;SDS011;58099;43.406;3.698;2022-08-03T04:59:20;5.53;;;2.20;;
70547;SDS011;58099;43.406;3.698;2022-08-03T05:01:46;5.50;;;2.08;;
70547;SDS011;58099;43.406;3.698;2022-08-03T05:04:11;6.37;;;2.90;;
70547;SDS011;58099;43.406;3.698;2022-08-03T05:06:37;6.35;;;2.17;;
70547;SDS011;58099;43.406;3.698;2022-08-03T05:09:03;6.20;;;2.92;;
70547;SDS011;58099;43.406;3.698;2022-08-03T05:11:29;5.53;;;2.40;;
70547;SDS011;58099;43.406;3.698;2022-08-03T05:13:55;5.75;;;2.60;;
70547;SDS011;58099;43.406;3.698;2022-08-03T05:16:21;6.23;;;2.50;;
70547;SDS011;58099;43.406;3.698;2022-08-03T05:18:47;6.53;;;2.30;;
70547;SDS011;58099;43.406;3.698;2022-08-03T05:21:12;6.63;;;2.67;;
70547;SDS011;58099;43.406;3.698;2022-08-03T05:23:38;5.97;;;2.83;;
70547;SDS011;58099;43.406;3.698;2022-08-03T05:26:05;5.45;;;2.80;;
70547;SDS011;58099;43.406;3.698;2022-08-03T05:28:31;6.20;;;2.50;;
70547;SDS011;58099;43.406;3.698;2022-08-03T05:30:56;8.27;;;3.35;;
70547;SDS011;58099;43.406;3.698;2022-08-03T05:33:22;6.87;;;2.83;;
70547;SDS011;58099;43.406;3.698;2022-08-03T05:35:48;6.05;;;2.80;;
70547;SDS011;58099;43.406;3.698;2022-08-03T05:38:13;7.83;;;2.73;;
70547;SDS011;58099;43.406;3.698;2022-08-03T05:40:39;8.65;;;3.33;;
70547;SDS011;58099;43.406;3.698;2022-08-03T05:43:05;7.87;;;2.70;;
70547;SDS011;58099;43.406;3.698;2022-08-03T05:45:30;4.93;;;2.43;;
70547;SDS011;58099;43.406;3.698;2022-08-03T05:47:56;6.28;;;2.78;;
70547;SDS011;58099;43.406;3.698;2022-08-03T05:50:22;10.83;;;2.43;;
70547;SDS011;58099;43.406;3.698;2022-08-03T05:52:47;6.78;;;2.85;;
70547;SDS011;58099;43.406;3.698;2022-08-03T05:55:13;6.00;;;2.40;;
70547;SDS011;58099;43.406;3.698;2022-08-03T05:57:40;6.57;;;2.83;;
70547;SDS011;58099;43.406;3.698;2022-08-03T06:00:08;7.80;;;3.30;;
70547;SDS011;58099;43.406;3.698;2022-08-03T06:02:35;7.18;;;3.22;;
70547;SDS011;58099;43.406;3.698;2022-08-03T06:05:01;7.68;;;2.90;;
70547;SDS011;58099;43.406;3.698;2022-08-03T06:07:27;7.90;;;2.30;;
70547;SDS011;58099;43.406;3.698;2022-08-03T06:09:53;6.50;;;2.38;;
70547;SDS011;58099;43.406;3.698;2022-08-03T06:12:19;7.00;;;2.40;;
70547;SDS011;58099;43.406;3.698;2022-08-03T06:14:45;5.55;;;2.45;;
70547;SDS011;58099;43.406;3.698;2022-08-03T06:17:11;7.65;;;2.80;;
70547;SDS011;58099;43.406;3.698;2022-08-03T06:19:36;6.50;;;2.40;;
70547;SDS011;58099;43.406;3.698;2022-08-03T06:22:02;7.18;;;2.28;;
70547;SDS011;58099;43.406;3.698;2022-08-03T06:24:28;6.60;;;2.50;;
70547;SDS011;58099;43.406;3.698;2022-08-03T06:26:54;6.95;;;2.53;;
70547;SDS011;58099;43.406;3.698;2022-08-03T06:29:21;6.68;;;2.13;;
70547;SDS011;58099;43.406;3.698;2022-08-03T06:31:47;6.07;;;2.80;;
70547;SDS011;58099;43.406;3.698;2022-08-03T06:34:12;5.80;;;2.63;;
70547;SDS011;58099;43.406;3.698;2022-08-03T06:36:38;8.95;;;3.13;;
70547;SDS011;58099;43.406;3.698;2022-08-03T06:39:04;7.70;;;2.60;;
70547;SDS011;58099;43.406;3.698;2022-08-03T06:41:30;7.93;;;2.60;;
70547;SDS011;58099;43.406;3.698;2022-08-03T06:43:56;6.28;;;3.00;;
70547;SDS011;58099;43.406;3.698;2022-08-03T06:46:21;10.20;;;3.20;;
70547;SDS011;58099;43.406;3.698;2022-08-03T06:48:47;8.38;;;3.05;;
70547;SDS011;58099;43.406;3.698;2022-08-03T06:51:13;9.07;;;3.03;;
70547;SDS011;58099;43.406;3.698;2022-08-03T06:53:38;8.98;;;3.20;;
70547;SDS011;58099;43.406;3.698;2022-08-03T06:56:05;8.77;;;3.20;;
70547;SDS011;58099;43.406;3.698;2022-08-03T06:58:31;8.10;;;2.80;;
70547;SDS011;58099;43.406;3.698;2022-08-03T07:00:57;7.10;;;3.10;;
70547;SDS011;58099;43.406;3.698;2022-08-03T07:03:23;8.05;;;3.30;;
70547;SDS011;58099;43.406;3.698;2022-08-03T07:05:48;9.07;;;2.95;;
70547;SDS011;58099;43.406;3.698;2022-08-03T07:08:15;8.63;;;2.75;;
70547;SDS011;58099;43.406;3.698;2022-08-03T07:10:41;8.73;;;3.38;;
70547;SDS011;58099;43.406;3.698;2022-08-03T07:13:07;11.53;;;3.63;;
70547;SDS011;58099;43.406;3.698;2022-08-03T07:15:33;7.38;;;3.20;;
70547;SDS011;58099;43.406;3.698;2022-08-03T07:17:59;9.52;;;3.60;;
70547;SDS011;58099;43.406;3.698;2022-08-03T07:20:25;7.53;;;3.50;;
70547;SDS011;58099;43.406;3.698;2022-08-03T07:22:51;14.65;;;3.63;;
70547;SDS011;58099;43.406;3.698;2022-08-03T07:25:17;8.98;;;3.33;;
70547;SDS011;58099;43.406;3.698;2022-08-03T07:27:46;11.40;;;3.53;;
70547;SDS011;58099;43.406;3.698;2022-08-03T07:30:13;9.15;;;3.55;;
70547;SDS011;58099;43.406;3.698;2022-08-03T07:32:39;8.93;;;3.75;;
70547;SDS011;58099;43.406;3.698;2022-08-03T07:35:06;9.65;;;3.55;;
70547;SDS011;58099;43.406;3.698;2022-08-03T07:37:33;9.77;;;4.10;;
70547;SDS011;58099;43.406;3.698;2022-08-03T07:39:59;11.00;;;4.00;;
70547;SDS011;58099;43.406;3.698;2022-08-03T07:42:27;12.88;;;4.35;;
70547;SDS011;58099;43.406;3.698;2022-08-03T07:44:53;10.35;;;3.47;;
70547;SDS011;58099;43.406;3.698;2022-08-03T07:47:20;8.40;;;3.83;;
70547;SDS011;58099;43.406;3.698;2022-08-03T07:49:49;6.93;;;3.90;;
70547;SDS011;58099;43.406;3.698;2022-08-03T07:52:15;6.53;;;3.65;;
70547;SDS011;58099;43.406;3.698;2022-08-03T07:54:59;6.53;;;3.63;;
70547;SDS011;58099;43.406;3.698;2022-08-03T07:57:25;7.10;;;4.20;;
70547;SDS011;58099;43.406;3.698;2022-08-03T07:59:51;9.15;;;3.97;;
70547;SDS011;58099;43.406;3.698;2022-08-03T08:02:17;7.07;;;3.75;;
70547;SDS011;58099;43.406;3.698;2022-08-03T08:04:42;6.97;;;3.63;;
70547;SDS011;58099;43.406;3.698;2022-08-03T08:07:08;6.20;;;3.40;;
70547;SDS011;58099;43.406;3.698;2022-08-03T08:09:34;6.70;;;3.63;;
70547;SDS011;58099;43.406;3.698;2022-08-03T08:11:59;7.40;;;3.08;;
70547;SDS011;58099;43.406;3.698;2022-08-03T08:14:25;6.63;;;3.30;;
70547;SDS011;58099;43.406;3.698;2022-08-03T08:16:51;5.30;;;2.88;;
70547;SDS011;58099;43.406;3.698;2022-08-03T08:19:17;7.03;;;3.60;;
70547;SDS011;58099;43.406;3.698;2022-08-03T08:21:43;7.45;;;3.33;;
70547;SDS011;58099;43.406;3.698;2022-08-03T08:24:09;7.88;;;3.35;;
70547;SDS011;58099;43.406;3.698;2022-08-03T08:26:35;5.93;;;3.50;;
70547;SDS011;58099;43.406;3.698;2022-08-03T08:29:01;7.95;;;4.00;;
70547;SDS011;58099;43.406;3.698;2022-08-03T08:31:27;7.65;;;3.22;;
70547;SDS011;58099;43.406;3.698;2022-08-03T08:33:53;7.93;;;4.22;;
70547;SDS011;58099;43.406;3.698;2022-08-03T08:36:19;10.03;;;4.40;;
70547;SDS011;58099;43.406;3.698;2022-08-03T08:38:45;14.27;;;5.20;;
70547;SDS011;58099;43.406;3.698;2022-08-03T08:41:11;18.25;;;5.00;;
70547;SDS011;58099;43.406;3.698;2022-08-03T08:43:38;10.10;;;4.57;;
70547;SDS011;58099;43.406;3.698;2022-08-03T08:46:04;10.75;;;5.28;;
70547;SDS011;58099;43.406;3.698;2022-08-03T08:48:35;8.48;;;5.60;;
70547;SDS011;58099;43.406;3.698;2022-08-03T08:51:08;9.10;;;5.80;;
70547;SDS011;58099;43.406;3.698;2022-08-03T08:53:35;10.60;;;5.65;;
70547;SDS011;58099;43.406;3.698;2022-08-03T08:56:02;9.50;;;5.00;;
70547;SDS011;58099;43.406;3.698;2022-08-03T08:58:29;7.68;;;5.25;;
70547;SDS011;58099;43.406;3.698;2022-08-03T09:01:00;9.05;;;5.50;;
70547;SDS011;58099;43.406;3.698;2022-08-03T09:03:26;8.52;;;6.22;;
70547;SDS011;58099;43.406;3.698;2022-08-03T09:05:53;9.18;;;7.70;;
70547;SDS011;58099;43.406;3.698;2022-08-03T09:08:21;9.68;;;8.10;;
70547;SDS011;58099;43.406;3.698;2022-08-03T09:10:47;9.35;;;7.72;;
70547;SDS011;58099;43.406;3.698;2022-08-03T09:13:13;10.35;;;8.30;;
70547;SDS011;58099;43.406;3.698;2022-08-03T09:15:39;12.77;;;8.20;;
70547;SDS011;58099;43.406;3.698;2022-08-03T09:18:06;10.98;;;9.65;;
70547;SDS011;58099;43.406;3.698;2022-08-03T09:20:33;12.82;;;10.77;;
70547;SDS011;58099;43.406;3.698;2022-08-03T09:23:04;9.45;;;8.48;;
70547;SDS011;58099;43.406;3.698;2022-08-03T09:25:35;12.07;;;10.10;;
70547;SDS011;58099;43.406;3.698;2022-08-03T09:28:12;10.95;;;8.13;;
70547;SDS011;58099;43.406;3.698;2022-08-03T09:30:42;13.95;;;11.30;;
70547;SDS011;58099;43.406;3.698;2022-08-03T09:33:21;10.95;;;9.85;;
70547;SDS011;58099;43.406;3.698;2022-08-03T09:35:48;12.70;;;9.05;;
70547;SDS011;58099;43.406;3.698;2022-08-03T09:38:14;11.13;;;9.63;;
70547;SDS011;58099;43.406;3.698;2022-08-03T09:40:40;8.07;;;6.22;;
70547;SDS011;58099;43.406;3.698;2022-08-03T09:43:07;10.45;;;8.10;;
70547;SDS011;58099;43.406;3.698;2022-08-03T09:45:36;8.95;;;7.03;;
70547;SDS011;58099;43.406;3.698;2022-08-03T09:48:22;10.05;;;5.90;;
70547;SDS011;58099;43.406;3.698;2022-08-03T09:50:50;7.65;;;5.38;;
70547;SDS011;58099;43.406;3.698;2022-08-03T09:53:18;7.65;;;5.82;;
70547;SDS011;58099;43.406;3.698;2022-08-03T09:55:54;6.68;;;5.22;;
70547;SDS011;58099;43.406;3.698;2022-08-03T09:58:25;8.02;;;5.53;;
70547;SDS011;58099;43.406;3.698;2022-08-03T10:01:02;6.82;;;5.03;;
70547;SDS011;58099;43.406;3.698;2022-08-03T10:03:29;7.82;;;5.35;;
70547;SDS011;58099;43.406;3.698;2022-08-03T10:05:57;8.35;;;5.15;;
70547;SDS011;58099;43.406;3.698;2022-08-03T10:08:23;9.10;;;6.60;;
70547;SDS011;58099;43.406;3.698;2022-08-03T10:10:49;6.57;;;5.55;;
70547;SDS011;58099;43.406;3.698;2022-08-03T10:13:19;11.13;;;5.45;;
70547;SDS011;58099;43.406;3.698;2022-08-03T10:15:46;9.90;;;5.30;;
70547;SDS011;58099;43.406;3.698;2022-08-03T10:18:12;8.85;;;5.70;;
70547;SDS011;58099;43.406;3.698;2022-08-03T10:20:40;9.73;;;5.78;;
70547;SDS011;58099;43.406;3.698;2022-08-03T10:23:13;7.47;;;5.88;;
70547;SDS011;58099;43.406;3.698;2022-08-03T10:25:42;7.43;;;5.30;;
70547;SDS011;58099;43.406;3.698;2022-08-03T10:28:11;8.83;;;5.40;;
70547;SDS011;58099;43.406;3.698;2022-08-03T10:30:40;8.80;;;5.70;;
70547;SDS011;58099;43.406;3.698;2022-08-03T10:33:13;9.40;;;6.47;;
70547;SDS011;58099;43.406;3.698;2022-08-03T10:35:42;9.23;;;7.63;;
70547;SDS011;58099;43.406;3.698;2022-08-03T10:38:11;10.25;;;8.93;;
70547;SDS011;58099;43.406;3.698;2022-08-03T10:40:43;10.10;;;9.00;;
70547;SDS011;58099;43.406;3.698;2022-08-03T10:43:11;10.45;;;6.35;;
70547;SDS011;58099;43.406;3.698;2022-08-03T10:45:42;9.63;;;7.18;;
70547;SDS011;58099;43.406;3.698;2022-08-03T10:48:10;8.15;;;6.05;;
70547;SDS011;58099;43.406;3.698;2022-08-03T10:50:37;7.23;;;5.80;;
70547;SDS011;58099;43.406;3.698;2022-08-03T10:53:05;7.35;;;6.03;;
70547;SDS011;58099;43.406;3.698;2022-08-03T10:55:35;8.15;;;5.60;;
70547;SDS011;58099;43.406;3.698;2022-08-03T11:01:03;9.63;;;6.35;;
70547;SDS011;58099;43.406;3.698;2022-08-03T11:03:29;7.90;;;6.50;;
70547;SDS011;58099;43.406;3.698;2022-08-03T11:06:15;10.57;;;6.53;;
70547;SDS011;58099;43.406;3.698;2022-08-03T11:08:43;8.93;;;6.80;;
70547;SDS011;58099;43.406;3.698;2022-08-03T11:14:00;10.13;;;5.93;;
70547;SDS011;58099;43.406;3.698;2022-08-03T11:16:36;8.00;;;5.60;;
70547;SDS011;58099;43.406;3.698;2022-08-03T11:19:06;8.43;;;6.13;;
70547;SDS011;58099;43.406;3.698;2022-08-03T11:29:38;10.30;;;5.73;;
70547;SDS011;58099;43.406;3.698;2022-08-03T11:35:11;8.50;;;6.55;;
70547;SDS011;58099;43.406;3.698;2022-08-03T11:40:40;9.05;;;6.38;;
70547;SDS011;58099;43.406;3.698;2022-08-03T11:48:37;8.80;;;6.55;;
70547;SDS011;58099;43.406;3.698;2022-08-03T11:51:07;9.48;;;5.65;;
70547;SDS011;58099;43.406;3.698;2022-08-03T11:53:53;9.27;;;5.78;;
70547;SDS011;58099;43.406;3.698;2022-08-03T11:56:20;9.03;;;5.80;;
70547;SDS011;58099;43.406;3.698;2022-08-03T11:58:46;9.60;;;5.60;;
70547;SDS011;58099;43.406;3.698;2022-08-03T12:01:13;9.15;;;5.38;;
70547;SDS011;58099;43.406;3.698;2022-08-03T12:03:41;8.95;;;6.47;;
70547;SDS011;58099;43.406;3.698;2022-08-03T12:06:11;9.10;;;6.10;;
70547;SDS011;58099;43.406;3.698;2022-08-03T12:08:38;7.90;;;6.32;;
70547;SDS011;58099;43.406;3.698;2022-08-03T12:11:06;8.52;;;6.55;;
70547;SDS011;58099;43.406;3.698;2022-08-03T12:13:37;8.13;;;5.72;;
70547;SDS011;58099;43.406;3.698;2022-08-03T12:16:05;8.27;;;6.38;;
70547;SDS011;58099;43.406;3.698;2022-08-03T12:18:31;9.10;;;6.77;;
70547;SDS011;58099;43.406;3.698;2022-08-03T12:21:05;8.40;;;6.05;;
70547;SDS011;58099;43.406;3.698;2022-08-03T12:23:35;9.23;;;7.10;;
70547;SDS011;58099;43.406;3.698;2022-08-03T12:26:05;8.88;;;6.60;;
70547;SDS011;58099;43.406;3.698;2022-08-03T12:28:32;10.20;;;6.97;;
70547;SDS011;58099;43.406;3.698;2022-08-03T12:31:02;11.67;;;7.63;;
70547;SDS011;58099;43.406;3.698;2022-08-03T12:36:31;11.30;;;7.53;;
70547;SDS011;58099;43.406;3.698;2022-08-03T12:39:00;9.27;;;6.97;;
70547;SDS011;58099;43.406;3.698;2022-08-03T12:41:38;11.40;;;7.50;;
70547;SDS011;58099;43.406;3.698;2022-08-03T12:44:05;9.98;;;7.10;;
70547;SDS011;58099;43.406;3.698;2022-08-03T12:46:33;8.63;;;6.22;;
70547;SDS011;58099;43.406;3.698;2022-08-03T12:54:14;9.37;;;7.53;;
70547;SDS011;58099;43.406;3.698;2022-08-03T12:59:32;9.68;;;7.28;;
70547;SDS011;58099;43.406;3.698;2022-08-03T13:02:01;9.27;;;7.10;;
70547;SDS011;58099;43.406;3.698;2022-08-03T13:04:29;10.55;;;7.50;;
70547;SDS011;58099;43.406;3.698;2022-08-03T13:07:00;10.15;;;7.40;;
70547;SDS011;58099;43.406;3.698;2022-08-03T13:09:28;9.73;;;8.05;;
70547;SDS011;58099;43.406;3.698;2022-08-03T13:14:54;9.27;;;6.70;;
70547;SDS011;58099;43.406;3.698;2022-08-03T13:17:21;10.95;;;7.63;;
70547;SDS011;58099;43.406;3.698;2022-08-03T13:19:47;9.60;;;7.03;;
70547;SDS011;58099;43.406;3.698;2022-08-03T13:22:14;10.65;;;7.55;;
70547;SDS011;58099;43.406;3.698;2022-08-03T13:24:44;10.63;;;6.90;;
70547;SDS011;58099;43.406;3.698;2022-08-03T13:27:12;8.68;;;7.40;;
70547;SDS011;58099;43.406;3.698;2022-08-03T13:29:38;12.13;;;7.88;;
70547;SDS011;58099;43.406;3.698;2022-08-03T13:32:04;9.82;;;6.97;;
70547;SDS011;58099;43.406;3.698;2022-08-03T13:34:30;10.20;;;7.28;;
70547;SDS011;58099;43.406;3.698;2022-08-03T13:36:56;10.02;;;7.43;;
70547;SDS011;58099;43.406;3.698;2022-08-03T13:39:22;9.20;;;6.43;;
70547;SDS011;58099;43.406;3.698;2022-08-03T13:41:48;11.17;;;7.50;;
70547;SDS011;58099;43.406;3.698;2022-08-03T13:44:14;9.32;;;6.75;;
70547;SDS011;58099;43.406;3.698;2022-08-03T13:46:40;11.07;;;8.00;;
70547;SDS011;58099;43.406;3.698;2022-08-03T13:49:06;11.60;;;7.30;;
70547;SDS011;58099;43.406;3.698;2022-08-03T13:51:32;10.57;;;7.50;;
70547;SDS011;58099;43.406;3.698;2022-08-03T13:53:58;11.45;;;7.80;;
70547;SDS011;58099;43.406;3.698;2022-08-03T13:56:24;9.37;;;6.23;;
70547;SDS011;58099;43.406;3.698;2022-08-03T13:58:50;8.68;;;6.20;;
70547;SDS011;58099;43.406;3.698;2022-08-03T14:01:16;8.32;;;5.82;;
70547;SDS011;58099;43.406;3.698;2022-08-03T14:03:42;8.57;;;6.20;;
70547;SDS011;58099;43.406;3.698;2022-08-03T14:06:08;8.55;;;6.43;;
70547;SDS011;58099;43.406;3.698;2022-08-03T14:08:34;8.93;;;6.60;;
70547;SDS011;58099;43.406;3.698;2022-08-03T14:11:00;9.03;;;6.57;;
70547;SDS011;58099;43.406;3.698;2022-08-03T14:13:25;8.82;;;6.72;;
70547;SDS011;58099;43.406;3.698;2022-08-03T14:15:51;10.17;;;6.17;;
70547;SDS011;58099;43.406;3.698;2022-08-03T14:18:20;11.30;;;6.70;;
70547;SDS011;58099;43.406;3.698;2022-08-03T14:20:46;10.40;;;7.23;;
70547;SDS011;58099;43.406;3.698;2022-08-03T14:23:12;9.18;;;6.03;;
70547;SDS011;58099;43.406;3.698;2022-08-03T14:25:40;7.80;;;6.00;;
70547;SDS011;58099;43.406;3.698;2022-08-03T14:28:06;9.98;;;6.95;;
70547;SDS011;58099;43.406;3.698;2022-08-03T14:30:32;9.10;;;6.95;;
70547;SDS011;58099;43.406;3.698;2022-08-03T14:32:58;9.93;;;6.85;;
70547;SDS011;58099;43.406;3.698;2022-08-03T14:35:24;9.13;;;6.40;;
70547;SDS011;58099;43.406;3.698;2022-08-03T14:37:49;8.77;;;6.20;;
70547;SDS011;58099;43.406;3.698;2022-08-03T14:40:16;9.02;;;6.30;;
70547;SDS011;58099;43.406;3.698;2022-08-03T14:42:42;7.78;;;6.22;;
70547;SDS011;58099;43.406;3.698;2022-08-03T14:45:08;9.13;;;6.30;;
70547;SDS011;58099;43.406;3.698;2022-08-03T14:47:34;8.27;;;6.18;;
70547;SDS011;58099;43.406;3.698;2022-08-03T14:50:00;8.35;;;5.93;;
70547;SDS011;58099;43.406;3.698;2022-08-03T14:52:28;7.97;;;6.10;;
70547;SDS011;58099;43.406;3.698;2022-08-03T14:54:54;7.03;;;5.43;;
70547;SDS011;58099;43.406;3.698;2022-08-03T14:57:20;9.60;;;6.30;;
70547;SDS011;58099;43.406;3.698;2022-08-03T14:59:46;7.80;;;5.97;;
70547;SDS011;58099;43.406;3.698;2022-08-03T15:02:12;8.60;;;5.22;;
70547;SDS011;58099;43.406;3.698;2022-08-03T15:04:38;8.30;;;5.93;;
70547;SDS011;58099;43.406;3.698;2022-08-03T15:07:04;10.10;;;6.87;;
70547;SDS011;58099;43.406;3.698;2022-08-03T15:09:29;8.00;;;6.25;;
70547;SDS011;58099;43.406;3.698;2022-08-03T15:11:55;8.30;;;6.57;;
70547;SDS011;58099;43.406;3.698;2022-08-03T15:14:21;8.63;;;5.97;;
70547;SDS011;58099;43.406;3.698;2022-08-03T15:16:47;10.07;;;6.25;;
70547;SDS011;58099;43.406;3.698;2022-08-03T15:19:12;7.63;;;6.13;;
70547;SDS011;58099;43.406;3.698;2022-08-03T15:21:38;8.95;;;6.35;;
70547;SDS011;58099;43.406;3.698;2022-08-03T15:24:04;8.50;;;6.20;;
70547;SDS011;58099;43.406;3.698;2022-08-03T15:26:30;9.35;;;6.55;;
70547;SDS011;58099;43.406;3.698;2022-08-03T15:28:56;10.20;;;6.57;;
70547;SDS011;58099;43.406;3.698;2022-08-03T15:31:22;8.70;;;6.60;;
70547;SDS011;58099;43.406;3.698;2022-08-03T15:33:48;8.27;;;6.65;;
70547;SDS011;58099;43.406;3.698;2022-08-03T15:36:17;9.38;;;6.70;;
70547;SDS011;58099;43.406;3.698;2022-08-03T15:38:43;10.38;;;8.95;;
70547;SDS011;58099;43.406;3.698;2022-08-03T15:41:10;9.40;;;8.38;;
70547;SDS011;58099;43.406;3.698;2022-08-03T15:43:37;10.82;;;8.30;;
70547;SDS011;58099;43.406;3.698;2022-08-03T15:46:02;10.35;;;7.78;;
70547;SDS011;58099;43.406;3.698;2022-08-03T15:48:28;9.80;;;8.50;;